Time;durP1;ratioP1;P1;durP2;ratioP2;P2;SDS_P1;SDS_P2;PMS_P1;PMS_P2;Temp;Humidity;BMP_temperature;BMP_pressure;BME280_temperature;BME280_humidity;BME280_pressure;Samples;Min_cycle;Max_cycle;Signal;HPM_P1;HPM_P2
2021/10/25 00:01:39;;;;;;;7.80;3.37;;;;;;;2.31;60.90;101178.84;1640101;86;21515;-61
2021/10/25 00:04:07;;;;;;;4.70;3.50;;;;;;;2.27;60.98;101174.89;1639776;86;21542;-61
2021/10/25 00:06:38;;;;;;;5.20;3.70;;;;;;;2.25;61.13;101180.05;1631615;85;21598;-61
2021/10/25 00:09:05;;;;;;;6.12;3.10;;;;;;;2.18;61.40;101174.31;1639295;85;21524;-61
2021/10/25 00:11:33;;;;;;;6.37;3.45;;;;;;;2.12;61.71;101175.08;1637684;86;21436;-61
2021/10/25 00:14:00;;;;;;;6.00;2.98;;;;;;;2.05;61.77;101179.72;1634530;86;21550;-61
2021/10/25 00:16:27;;;;;;;8.28;3.40;;;;;;;2.02;61.92;101184.88;1629488;85;21467;-61
2021/10/25 00:19:03;;;;;;;3.50;2.90;;;;;;;1.99;62.05;101189.14;1640487;86;21567;-60
2021/10/25 00:21:32;;;;;;;4.78;3.35;;;;;;;1.90;62.18;101184.25;1634791;86;21579;-61
2021/10/25 00:24:02;;;;;;;13.13;3.50;;;;;;;1.87;62.31;101179.44;1639540;86;21593;-61
2021/10/25 00:26:30;;;;;;;6.35;3.72;;;;;;;1.85;62.46;101182.42;1637659;85;21200;-61
2021/10/25 00:28:57;;;;;;;;;;;;;;;1.82;62.56;101181.06;1637050;86;21492;-60
2021/10/25 00:31:24;;;;;;;5.03;3.62;;;;;;;1.79;62.84;101189.67;1621641;87;20485;-61
2021/10/25 00:33:51;;;;;;;4.47;3.15;;;;;;;1.70;62.73;101177.41;1622827;85;21480;-60
2021/10/25 00:36:17;;;;;;;10.03;3.40;;;;;;;1.67;62.92;101179.93;1631051;86;21864;-60
2021/10/25 00:38:45;;;;;;;4.90;3.30;;;;;;;1.63;63.02;101180.73;1633568;87;21528;-61
2021/10/25 00:41:12;;;;;;;;;;;;;;;1.58;63.25;101181.48;1633529;87;21582;-61
2021/10/25 00:43:39;;;;;;;5.80;3.50;;;;;;;1.51;63.58;101177.92;1632746;85;20201;-61
2021/10/25 00:46:10;;;;;;;5.58;4.03;;;;;;;1.42;63.64;101182.94;1635319;87;21531;-61
2021/10/25 00:48:37;;;;;;;6.85;3.37;;;;;;;1.38;63.84;101180.70;1627675;87;21538;-60
2021/10/25 00:51:06;;;;;;;12.05;4.30;;;;;;;1.36;63.94;101183.26;1633006;86;21617;-60
2021/10/25 00:53:33;;;;;;;4.97;3.60;;;;;;;1.34;63.98;101184.08;1625570;86;21630;-60
2021/10/25 00:56:02;;;;;;;8.90;3.80;;;;;;;1.36;64.23;101179.80;1635386;87;21636;-61
2021/10/25 00:58:29;;;;;;;;;;;;;;;1.30;64.26;101175.77;1633442;86;21638;-60
2021/10/25 01:00:56;;;;;;;5.40;3.63;;;;;;;1.26;64.62;101181.74;1635193;87;22009;-60
2021/10/25 01:03:23;;;;;;;6.35;3.83;;;;;;;1.21;64.53;101184.26;1634749;85;21313;-61
2021/10/25 01:05:50;;;;;;;;;;;;;;;1.20;64.60;101179.91;1633984;86;21023;-60
2021/10/25 01:08:17;;;;;;;5.00;3.70;;;;;;;1.19;64.87;101178.17;1637977;86;20422;-60
2021/10/25 01:10:44;;;;;;;9.47;4.10;;;;;;;1.14;64.76;101180.66;1632787;86;21014;-60
2021/10/25 01:13:11;;;;;;;9.90;4.35;;;;;;;1.08;64.87;101183.13;1601860;87;21768;-60
2021/10/25 01:15:39;;;;;;;6.33;4.92;;;;;;;1.04;64.92;101177.87;1635618;86;21471;-63
2021/10/25 01:18:06;;;;;;;7.28;4.45;;;;;;;0.99;65.19;101179.05;1608143;87;21664;-60
2021/10/25 01:20:36;;;;;;;7.05;4.90;;;;;;;0.95;65.39;101183.28;1629930;87;21637;-60
2021/10/25 01:23:14;;;;;;;7.12;4.92;;;;;;;0.97;65.28;101186.78;1628232;87;21526;-60
2021/10/25 01:25:42;;;;;;;7.47;5.22;;;;;;;0.97;65.26;101189.37;1638222;86;21742;-61
2021/10/25 01:28:11;;;;;;;6.35;5.05;;;;;;;0.96;65.27;101200.59;1628886;85;21570;-61
2021/10/25 01:30:37;;;;;;;6.33;4.97;;;;;;;0.95;65.32;101199.26;1627012;87;21637;-60
2021/10/25 01:33:12;;;;;;;7.00;5.53;;;;;;;0.91;65.39;101204.79;1633448;87;21716;-61
2021/10/25 01:35:39;;;;;;;7.78;5.30;;;;;;;0.92;65.54;101208.25;1633786;85;21546;-60
2021/10/25 01:38:06;;;;;;;7.12;5.12;;;;;;;0.90;65.58;101208.20;1627934;86;21859;-65
2021/10/25 01:40:33;;;;;;;7.33;5.28;;;;;;;0.87;65.62;101212.48;1628948;86;21570;-60
2021/10/25 01:43:01;;;;;;;9.10;5.33;;;;;;;0.83;65.78;101215.81;1633180;86;21585;-61
2021/10/25 01:45:29;;;;;;;7.35;5.60;;;;;;;0.81;65.84;101223.58;1608896;85;21531;-61
2021/10/25 01:47:56;;;;;;;;;;;;;;;0.75;65.90;101219.53;1632721;86;21527;-61
2021/10/25 01:50:24;;;;;;;6.58;5.00;;;;;;;0.73;66.19;101223.37;1632797;86;21771;-60
2021/10/25 01:52:51;;;;;;;7.58;5.30;;;;;;;0.69;66.06;101228.46;1635156;85;21559;-60
2021/10/25 01:55:19;;;;;;;6.95;5.53;;;;;;;0.67;66.19;101229.72;1629548;87;21495;-60
2021/10/25 01:57:46;;;;;;;8.30;5.17;;;;;;;0.65;66.19;101229.23;1633202;86;21515;-59
2021/10/25 02:00:13;;;;;;;10.10;5.85;;;;;;;0.63;66.30;101227.90;1631484;85;21534;-60
2021/10/25 02:02:44;;;;;;;8.38;5.17;;;;;;;0.64;66.26;101236.53;1628860;87;21807;-60
2021/10/25 02:05:16;;;;;;;7.12;5.62;;;;;;;0.58;66.24;101237.27;1637335;85;21019;-59
2021/10/25 02:07:42;;;;;;;7.62;5.40;;;;;;;0.52;66.39;101230.23;1631177;86;21598;-60
2021/10/25 02:10:09;;;;;;;6.80;5.50;;;;;;;0.51;66.47;101243.13;1633793;86;21619;-60
2021/10/25 02:12:37;;;;;;;7.53;6.03;;;;;;;0.51;66.49;101239.24;1633689;86;21603;-59
2021/10/25 02:15:05;;;;;;;10.63;5.58;;;;;;;0.50;66.50;101238.38;1625956;86;22090;-60
2021/10/25 02:17:32;;;;;;;;;;;;;;;0.50;66.58;101240.97;1632564;86;21432;-59
2021/10/25 02:20:02;;;;;;;9.00;5.35;;;;;;;0.48;66.78;101237.90;1634150;85;20455;-59
2021/10/25 02:22:29;;;;;;;8.60;5.62;;;;;;;0.44;66.65;101242.12;1631487;87;21514;-59
2021/10/25 02:24:56;;;;;;;8.33;6.37;;;;;;;0.40;66.78;101237.72;1628445;87;21515;-59
2021/10/25 02:27:24;;;;;;;7.85;5.80;;;;;;;0.40;66.85;101248.07;1633658;86;22189;-60
2021/10/25 02:29:50;;;;;;;6.58;5.58;;;;;;;0.37;67.00;101245.39;1634210;86;21524;-62
2021/10/25 02:32:22;;;;;;;7.00;5.35;;;;;;;0.36;66.86;101250.13;1632202;86;21562;-61
2021/10/25 02:34:49;;;;;;;7.72;5.30;;;;;;;0.29;67.13;101248.23;1610297;87;21585;-62
2021/10/25 02:37:18;;;;;;;7.97;5.92;;;;;;;0.28;67.30;101243.87;1633242;85;21433;-60
2021/10/25 02:39:46;;;;;;;8.35;5.92;;;;;;;0.25;67.41;101247.27;1630017;86;21670;-61
2021/10/25 02:42:13;;;;;;;6.20;5.28;;;;;;;0.20;67.52;101247.56;1626388;86;21649;-60
2021/10/25 02:44:40;;;;;;;6.33;5.30;;;;;;;0.15;67.69;101252.64;1628771;86;21440;-61
2021/10/25 02:47:07;;;;;;;9.18;5.92;;;;;;;0.17;67.72;101258.72;1630348;87;21570;-61
2021/10/25 02:49:35;;;;;;;5.58;4.90;;;;;;;0.18;67.73;101262.17;1634594;86;21531;-61
2021/10/25 02:52:02;;;;;;;7.08;5.60;;;;;;;0.19;67.66;101262.65;1630918;85;21778;-61
2021/10/25 02:54:31;;;;;;;5.83;5.22;;;;;;;0.14;67.82;101259.92;1608208;87;21471;-60
2021/10/25 02:56:58;;;;;;;5.75;4.72;;;;;;;0.17;67.77;101260.02;1628819;87;21537;-61
2021/10/25 02:59:30;;;;;;;8.70;5.30;;;;;;;0.14;67.81;101257.34;1626467;86;21464;-61
2021/10/25 03:01:56;;;;;;;5.67;5.03;;;;;;;0.15;67.71;101261.69;1630212;86;22190;-61
2021/10/25 03:04:24;;;;;;;6.95;5.05;;;;;;;0.16;67.67;101258.25;1628327;85;21801;-61
2021/10/25 03:06:51;;;;;;;7.00;5.25;;;;;;;0.14;67.57;101263.80;1622159;86;21428;-61
2021/10/25 03:09:18;;;;;;;8.05;4.90;;;;;;;0.14;67.51;101263.80;1624588;87;21543;-61
2021/10/25 03:11:46;;;;;;;9.25;5.10;;;;;;;0.06;67.60;101269.61;1629923;87;21630;-61
2021/10/25 03:14:13;;;;;;;7.92;4.85;;;;;;;0.06;67.60;101269.61;1634021;86;21507;-61
2021/10/25 03:16:42;;;;;;;9.23;5.50;;;;;;;0.06;67.66;101274.78;1635096;86;21827;-61
2021/10/25 03:19:09;;;;;;;6.15;5.10;;;;;;;0.03;67.88;101281.19;1660647;84;21685;-61
2021/10/25 03:21:35;;;;;;;6.50;5.12;;;;;;;0.01;68.05;101281.56;1630562;87;21554;-60
2021/10/25 03:24:04;;;;;;;7.95;5.00;;;;;;;-0.01;68.06;101288.84;1630284;86;21530;-60
2021/10/25 03:26:33;;;;;;;6.65;5.45;;;;;;;-0.01;68.08;101289.27;1632139;86;21607;-60
2021/10/25 03:28:59;;;;;;;8.73;5.42;;;;;;;-0.03;68.06;101284.06;1630651;85;21505;-61
2021/10/25 03:31:26;;;;;;;7.40;6.00;;;;;;;-0.05;68.15;101287.45;1654450;85;21018;-61
2021/10/25 03:33:53;;;;;;;9.10;6.10;;;;;;;-0.03;68.19;101280.60;1633758;87;21573;-60
2021/10/25 03:36:25;;;;;;;9.78;5.87;;;;;;;-0.03;68.19;101282.77;1631972;85;21559;-61
2021/10/25 03:38:50;;;;;;;6.75;5.97;;;;;;;-0.05;68.22;101284.44;1635738;86;21567;-61
2021/10/25 03:41:29;;;;;;;9.38;6.30;;;;;;;-0.08;68.16;101280.46;1631554;87;21788;-61
2021/10/25 03:43:54;;;;;;;8.78;5.55;;;;;;;-0.11;68.17;101282.98;1634830;87;21582;-59
2021/10/25 03:49:04;;;;;;;9.58;5.60;;;;;;;-0.14;68.24;101284.19;1638137;87;21575;-60
2021/10/25 03:51:17;;;;;;;8.88;6.12;;;;;;;-0.17;68.24;101276.37;1632467;87;21494;-60
2021/10/25 03:53:59;;;;;;;6.08;5.17;;;;;;;-0.20;68.25;101274.98;1633114;87;21753;-60
2021/10/25 03:59:24;;;;;;;6.40;5.45;;;;;;;-0.22;68.37;101288.28;1579839;90;21594;-60
2021/10/25 04:01:54;;;;;;;9.33;5.95;;;;;;;-0.24;68.25;101292.11;1616145;87;21524;-59
2021/10/25 04:12:47;;;;;;;7.60;5.58;;;;;;;-0.26;68.25;101291.63;1577735;90;21532;-61
2021/10/25 04:26:31;;;;;;;10.58;7.37;;;;;;;-0.44;68.55;101304.47;1626617;87;21492;-60
2021/10/25 04:28:51;;;;;;;12.47;7.58;;;;;;;-0.49;68.71;101302.19;1621536;87;21485;-60
2021/10/25 04:31:18;;;;;;;13.80;7.40;;;;;;;-0.50;68.64;101304.72;1629304;86;21561;-60
2021/10/25 04:33:46;;;;;;;9.50;7.00;;;;;;;-0.52;68.76;101309.84;1599261;87;22219;-59
2021/10/25 04:36:32;;;;;;;8.93;6.35;;;;;;;-0.54;68.70;101315.38;1628181;86;21423;-59
2021/10/25 04:39:02;;;;;;;11.18;6.37;;;;;;;-0.57;68.63;101312.70;1629282;85;21465;-59
2021/10/25 04:41:29;;;;;;;7.85;6.33;;;;;;;-0.59;68.74;101319.53;1630671;87;21585;-60
2021/10/25 04:43:56;;;;;;;8.65;5.78;;;;;;;-0.59;68.67;101321.69;1627388;87;21633;-60
2021/10/25 04:46:24;;;;;;;8.95;5.28;;;;;;;-0.58;68.71;101325.17;1627282;86;21681;-60
2021/10/25 04:48:51;;;;;;;7.65;6.05;;;;;;;-0.59;68.65;101324.28;1630160;87;21499;-60
2021/10/25 04:51:19;;;;;;;9.35;5.55;;;;;;;-0.59;68.63;101325.98;1627703;86;21058;-59
2021/10/25 04:54:05;;;;;;;7.45;5.78;;;;;;;-0.61;68.65;101332.83;1634971;85;21646;-60
2021/10/25 04:56:34;;;;;;;7.85;5.90;;;;;;;-0.60;68.80;101331.58;1635357;85;20971;-62
2021/10/25 04:59:01;;;;;;;9.58;6.45;;;;;;;-0.59;68.84;101333.74;1629275;87;22080;-61
2021/10/25 05:01:28;;;;;;;10.48;6.45;;;;;;;-0.55;68.88;101335.58;1637188;86;21546;-60
2021/10/25 05:03:55;;;;;;;11.15;6.85;;;;;;;-0.50;69.08;101339.61;1635767;86;21129;-60
2021/10/25 05:06:22;;;;;;;11.30;6.95;;;;;;;-0.46;69.04;101344.90;1616567;86;21598;-61
2021/10/25 05:08:50;;;;;;;10.60;7.17;;;;;;;-0.44;69.00;101343.66;1630905;87;21516;-60
2021/10/25 05:13:07;;;;;;;7.85;6.50;;;;;;;-0.34;68.94;101349.57;1789469;79;23208;-61
2021/10/25 05:15:34;;;;;;;9.47;6.27;;;;;;;-0.36;68.77;101356.80;1772606;80;21609;-61
2021/10/25 05:18:01;;;;;;;11.40;5.53;;;;;;;-0.35;68.95;101364.61;1760579;80;21817;-60
2021/10/25 05:20:29;;;;;;;9.05;6.80;;;;;;;-0.33;68.90;101368.11;1758923;80;21536;-61
2021/10/25 05:22:57;;;;;;;8.00;5.80;;;;;;;-0.27;68.92;101368.70;1759582;80;21517;-61
2021/10/25 05:25:24;;;;;;;9.68;6.00;;;;;;;-0.23;68.98;101369.25;1755265;80;21647;-60
2021/10/25 05:27:51;;;;;;;9.40;6.33;;;;;;;-0.20;68.95;101360.30;1763007;80;27166;-60
2021/10/25 05:30:18;;;;;;;10.93;7.05;;;;;;;-0.14;69.02;101371.23;1757632;80;21534;-59
2021/10/25 05:32:46;;;;;;;9.83;6.37;;;;;;;-0.10;69.08;101371.34;1754712;80;21534;-59
2021/10/25 05:35:13;;;;;;;11.80;5.92;;;;;;;-0.07;69.33;101368.86;1756205;80;21573;-58
2021/10/25 05:37:40;;;;;;;7.87;6.07;;;;;;;-0.02;69.27;101371.17;1759045;80;21526;-61
2021/10/25 05:40:08;;;;;;;8.48;6.30;;;;;;;0.05;69.36;101372.20;1771847;80;21430;-60
2021/10/25 05:42:38;;;;;;;9.35;6.83;;;;;;;0.10;69.22;101366.74;1757423;80;22121;-60
2021/10/25 05:45:05;;;;;;;9.45;6.83;;;;;;;0.14;69.21;101376.33;1773797;80;21557;-60
2021/10/25 05:47:32;;;;;;;11.33;7.62;;;;;;;0.18;69.26;101374.70;1763850;79;21486;-58
2021/10/25 05:50:00;;;;;;;13.10;7.92;;;;;;;0.24;69.19;101378.75;1757556;80;21558;-59
2021/10/25 05:52:27;;;;;;;9.08;7.12;;;;;;;0.30;68.92;101386.70;1762708;80;21684;-59
2021/10/25 05:54:54;;;;;;;11.53;7.37;;;;;;;0.27;68.88;101383.15;1756126;80;21808;-58
2021/10/25 05:57:22;;;;;;;11.18;7.37;;;;;;;0.25;69.26;101386.98;1772211;80;21518;-58
2021/10/25 05:59:49;;;;;;;16.40;7.33;;;;;;;0.32;69.15;101392.79;1767100;80;25621;-58
2021/10/25 06:02:34;;;;;;;9.68;7.12;;;;;;;0.34;69.12;101395.39;1760036;80;21531;-58
2021/10/25 06:04:57;;;;;;;13.62;7.90;;;;;;;0.41;69.09;101395.16;1719740;81;21574;-59
2021/10/25 06:07:25;;;;;;;17.12;8.20;;;;;;;0.44;68.77;101402.58;1704959;82;21505;-59
2021/10/25 06:09:52;;;;;;;22.35;9.68;;;;;;;0.42;68.89;101403.39;1704309;82;21513;-58
2021/10/25 06:12:19;;;;;;;24.67;12.90;;;;;;;0.47;68.90;101408.25;1700567;82;21587;-58
2021/10/25 06:15:09;;;;;;;26.85;14.90;;;;;;;0.52;68.85;101410.13;1739813;80;21634;-57
2021/10/25 06:20:00;;;;;;;24.77;16.48;;;;;;;0.68;68.62;101414.40;1751097;80;21842;-57
2021/10/25 06:22:29;;;;;;;20.02;12.33;;;;;;;0.77;68.61;101412.05;1750403;80;21440;-57
2021/10/25 06:24:55;;;;;;;23.45;15.38;;;;;;;0.90;68.29;101411.52;1741753;80;21455;-57
2021/10/25 06:27:22;;;;;;;27.60;15.30;;;;;;;0.97;68.01;101419.90;1742904;80;21491;-58
2021/10/25 06:29:48;;;;;;;17.32;11.05;;;;;;;1.01;67.58;101420.86;1740709;80;21512;-58
2021/10/25 06:32:16;;;;;;;14.80;8.70;;;;;;;1.04;67.66;101417.48;1753241;80;23122;-58
2021/10/25 06:34:45;;;;;;;11.93;8.03;;;;;;;1.09;67.47;101421.04;1736544;80;21567;-57
2021/10/25 06:37:34;;;;;;;13.80;7.62;;;;;;;1.13;67.37;101426.75;1668085;84;20998;-57
2021/10/25 06:40:01;;;;;;;9.65;7.60;;;;;;;1.24;67.16;101427.88;1722573;80;21626;-57
2021/10/25 06:42:30;;;;;;;11.55;7.28;;;;;;;1.32;66.94;101416.43;1748657;80;21471;-60
2021/10/25 06:45:10;;;;;;;12.95;7.35;;;;;;;1.43;66.90;101425.73;1761172;80;22100;-58
2021/10/25 06:47:39;;;;;;;10.50;7.30;;;;;;;1.53;66.51;101422.52;1746989;80;21029;-57
2021/10/25 06:50:07;;;;;;;10.25;6.30;;;;;;;1.66;66.11;101424.98;1755077;80;21531;-57
2021/10/25 06:52:36;;;;;;;9.15;6.70;;;;;;;1.78;66.02;101425.22;1743530;80;21554;-58
2021/10/25 06:55:07;;;;;;;9.88;6.33;;;;;;;1.91;65.48;101428.53;1750853;80;21691;-57
2021/10/25 06:57:34;;;;;;;11.57;6.20;;;;;;;2.02;65.36;101432.66;1739974;80;21822;-58
2021/10/25 07:00:07;;;;;;;10.50;7.42;;;;;;;2.16;64.95;101426.44;1705039;82;21511;-58
2021/10/25 07:02:34;;;;;;;17.00;7.67;;;;;;;2.27;64.67;101422.34;1746263;80;22150;-59
2021/10/25 07:05:04;;;;;;;11.33;7.17;;;;;;;2.40;64.49;101427.34;1759017;80;21479;-59
2021/10/25 07:07:33;;;;;;;9.18;7.12;;;;;;;2.53;64.12;101424.56;1748763;80;21520;-59
2021/10/25 07:10:02;;;;;;;16.12;7.42;;;;;;;2.66;63.61;101424.38;1753459;80;22030;-57
2021/10/25 07:12:32;;;;;;;12.73;6.85;;;;;;;2.76;63.49;101421.51;1750396;80;21587;-57
2021/10/25 07:15:01;;;;;;;13.22;7.50;;;;;;;2.89;63.09;101423.47;1744055;80;21616;-59
2021/10/25 07:17:41;;;;;;;8.65;6.80;;;;;;;3.01;62.71;101421.06;1758830;80;21613;-59
2021/10/25 08:07:54;;;;;;;8.90;4.67;;;;;;;5.01;54.28;101430.09;1748656;80;21057;-58
2021/10/25 08:10:23;;;;;;;6.37;4.67;;;;;;;5.07;54.06;101430.14;1675162;83;21492;-59
2021/10/25 08:12:55;;;;;;;5.72;2.80;;;;;;;5.14;53.78;101430.17;1757211;80;21582;-59
2021/10/25 08:15:28;;;;;;;2.98;2.12;;;;;;;5.27;53.64;101429.41;1761452;80;21479;-59
2021/10/25 08:17:54;;;;;;;2.40;1.90;;;;;;;5.39;52.94;101429.95;1754708;80;22110;-58
2021/10/25 08:20:19;;;;;;;4.08;2.60;;;;;;;5.50;52.09;101423.07;1760482;80;21530;-59
2021/10/25 08:22:46;;;;;;;4.33;2.65;;;;;;;5.65;52.11;101428.78;1757777;80;21510;-59
2021/10/25 08:25:13;;;;;;;3.45;2.62;;;;;;;5.81;52.16;101421.94;1761542;80;21006;-59
2021/10/25 08:27:54;;;;;;;4.15;2.67;;;;;;;5.95;51.71;101419.38;1759689;80;21472;-59
2021/10/25 08:30:21;;;;;;;3.98;2.83;;;;;;;6.05;50.29;101417.30;1757435;80;25610;-59
2021/10/25 08:35:52;;;;;;;3.12;2.75;;;;;;;6.21;50.78;101419.52;1757861;80;21054;-60
2021/10/25 08:41:13;;;;;;;7.00;3.90;;;;;;;6.59;50.43;101407.88;1743378;80;21001;-60
2021/10/25 08:43:41;;;;;;;5.58;3.60;;;;;;;6.78;50.01;101411.80;1758275;80;21773;-62
2021/10/25 08:46:14;;;;;;;6.47;4.20;;;;;;;6.87;49.66;101405.72;1730415;81;21561;-61
2021/10/25 08:48:45;;;;;;;5.83;4.33;;;;;;;6.94;48.73;101407.47;1732938;80;21568;-60
2021/10/25 08:51:17;;;;;;;6.85;3.52;;;;;;;6.99;49.09;101410.52;1747785;80;21090;-60
2021/10/25 08:53:44;;;;;;;5.97;4.00;;;;;;;7.12;49.01;101410.50;1763658;80;22000;-62
2021/10/25 08:56:17;;;;;;;4.97;3.42;;;;;;;7.20;47.44;101403.55;1750267;80;22156;-61
2021/10/25 08:58:45;;;;;;;6.47;3.87;;;;;;;7.24;48.08;101404.41;1761248;80;21593;-61
2021/10/25 09:01:32;;;;;;;7.12;3.47;;;;;;;7.32;47.67;101403.96;1758751;80;21529;-62
2021/10/25 09:04:16;;;;;;;4.75;3.22;;;;;;;7.36;47.39;101394.78;1684433;83;21640;-60
2021/10/25 09:06:56;;;;;;;4.37;3.40;;;;;;;7.43;47.47;101399.58;1730475;80;21629;-59
2021/10/25 09:09:27;;;;;;;4.08;3.62;;;;;;;7.52;47.04;101388.23;1749347;80;21830;-60
2021/10/25 09:12:08;;;;;;;5.10;3.58;;;;;;;7.65;46.83;101389.94;1753639;80;21379;-59
2021/10/25 09:14:39;;;;;;;4.83;3.58;;;;;;;7.77;46.68;101389.02;1745790;80;21606;-58
2021/10/25 09:17:09;;;;;;;4.33;3.30;;;;;;;7.83;46.10;101386.37;1757138;80;21482;-58
2021/10/25 09:19:39;;;;;;;4.92;3.10;;;;;;;7.91;45.64;101388.55;1751331;80;21573;-59
2021/10/25 09:22:10;;;;;;;4.80;3.80;;;;;;;8.32;44.98;101396.62;1744291;80;22197;-60
2021/10/25 09:24:37;;;;;;;4.65;3.85;;;;;;;9.23;43.98;101385.92;1762029;80;21429;-59
2021/10/25 09:27:07;;;;;;;11.43;3.95;;;;;;;9.93;42.69;101381.68;1759283;80;21416;-58
2021/10/25 09:29:37;;;;;;;5.60;3.65;;;;;;;9.93;42.21;101377.73;1751864;80;21455;-59
2021/10/25 09:32:10;;;;;;;5.10;3.90;;;;;;;9.73;42.97;101375.34;1743515;80;21616;-59
2021/10/25 09:34:45;;;;;;;9.55;4.35;;;;;;;9.70;42.27;101380.62;1718870;82;22572;-61
2021/10/25 09:37:18;;;;;;;7.40;4.90;;;;;;;9.80;41.79;101372.22;1690136;83;21538;-60
2021/10/25 09:51:00;;;;;;;11.73;6.42;;;;;;;10.44;40.16;101360.00;1757086;80;21946;-60
2021/10/25 09:53:35;;;;;;;7.60;5.97;;;;;;;10.52;39.88;101362.91;1756398;80;21616;-59
2021/10/25 09:56:04;;;;;;;8.68;6.00;;;;;;;10.70;40.27;101364.86;1757151;80;21468;-60
2021/10/25 09:58:44;;;;;;;9.63;6.05;;;;;;;10.86;39.58;101368.09;1764048;80;21518;-63
2021/10/25 10:01:09;;;;;;;9.18;5.83;;;;;;;10.93;39.62;101368.42;1752920;80;21459;-65
2021/10/25 10:03:38;;;;;;;9.23;6.30;;;;;;;10.67;39.48;101360.95;1762573;80;21495;-64
2021/10/25 10:06:07;;;;;;;9.55;6.30;;;;;;;10.58;38.98;101361.09;1746805;80;21090;-66
2021/10/25 10:08:36;;;;;;;12.60;6.42;;;;;;;10.53;39.54;101355.91;1745937;80;21542;-58
2021/10/25 10:11:05;;;;;;;11.33;5.85;;;;;;;10.62;39.31;101352.25;1747414;80;20944;-58
2021/10/25 10:13:32;;;;;;;9.73;6.23;;;;;;;10.66;38.92;101352.20;1758305;80;21538;-60
2021/10/25 10:16:10;;;;;;;;;;;;;;;10.78;38.14;101351.13;1728747;80;21795;-58
2021/10/25 10:18:46;;;;;;;15.13;6.97;;;;;;;10.78;37.91;101348.48;1752953;80;20192;-59
2021/10/25 10:21:29;;;;;;;8.63;6.53;;;;;;;10.65;37.91;101346.95;1701453;83;21467;-58
2021/10/25 10:24:04;;;;;;;9.40;6.90;;;;;;;10.59;37.90;101346.61;1732914;80;21487;-57
2021/10/25 10:26:32;;;;;;;7.28;6.45;;;;;;;10.45;38.45;101341.57;1725816;80;21527;-58
2021/10/25 10:28:56;;;;;;;10.15;6.78;;;;;;;10.38;38.09;101338.61;1754014;80;21018;-58
2021/10/25 10:31:25;;;;;;;10.23;6.53;;;;;;;10.50;37.67;101336.23;1755579;80;21594;-58
2021/10/25 10:34:14;;;;;;;8.88;6.95;;;;;;;10.48;37.86;101336.24;1749664;80;21517;-59
2021/10/25 10:36:52;;;;;;;;;;;;;;;10.56;38.01;101337.89;1756988;80;21494;-59
2021/10/25 10:39:19;;;;;;;11.33;6.65;;;;;;;10.57;37.14;101335.24;1752361;80;22056;-58
2021/10/25 10:42:06;;;;;;;11.05;7.17;;;;;;;10.43;37.28;101337.20;1759987;80;21612;-58
2021/10/25 10:44:34;;;;;;;8.95;6.78;;;;;;;10.23;37.74;101332.23;1757165;80;21542;-59
2021/10/25 10:47:12;;;;;;;10.03;7.10;;;;;;;10.27;38.07;101336.09;1685866;82;21025;-60
2021/10/25 10:49:44;;;;;;;8.63;6.45;;;;;;;10.43;37.74;101339.38;1755051;80;21435;-58
2021/10/25 10:55:06;;;;;;;8.38;6.45;;;;;;;10.60;37.24;101330.37;1733542;82;21432;-60
2021/10/25 11:00:42;;;;;;;10.03;6.95;;;;;;;10.56;36.83;101337.44;1751628;80;21010;-59
2021/10/25 11:03:25;;;;;;;12.82;6.67;;;;;;;10.66;37.10;101334.20;1747884;80;21542;-57
2021/10/25 11:06:01;;;;;;;9.58;6.85;;;;;;;10.76;36.95;101333.18;1761962;80;21853;-57
2021/10/25 11:08:36;;;;;;;8.78;6.75;;;;;;;10.85;37.11;101334.34;1755541;80;21511;-58
2021/10/25 11:11:06;;;;;;;8.95;6.80;;;;;;;10.98;37.32;101331.48;1743787;80;21523;-58
2021/10/25 11:13:43;;;;;;;10.93;6.78;;;;;;;11.07;37.42;101322.11;1749138;80;20998;-59
2021/10/25 11:16:19;;;;;;;10.80;6.83;;;;;;;11.20;37.17;101333.30;1744129;80;21410;-60
2021/10/25 11:18:47;;;;;;;11.70;7.42;;;;;;;11.21;37.07;101325.83;1752799;80;22015;-59
2021/10/25 11:21:26;;;;;;;11.45;7.20;;;;;;;11.25;36.95;101327.50;1748599;80;21486;-60
2021/10/25 11:24:07;;;;;;;13.78;6.67;;;;;;;11.23;36.97;101327.52;1749479;80;21500;-60
2021/10/25 11:26:43;;;;;;;12.60;6.75;;;;;;;11.26;37.10;101324.84;1743606;80;21504;-61
2021/10/25 11:29:20;;;;;;;10.68;6.92;;;;;;;11.35;37.04;101313.70;1709615;82;21557;-58
2021/10/25 11:31:53;;;;;;;;;;;;;;;11.39;36.95;101312.28;1762519;80;21948;-59
2021/10/25 11:34:33;;;;;;;11.50;7.42;;;;;;;11.49;36.32;101314.31;1763530;80;20515;-59
2021/10/25 11:37:08;;;;;;;14.07;7.00;;;;;;;11.56;36.01;101313.72;1758288;80;21636;-58
2021/10/25 11:39:49;;;;;;;12.82;6.92;;;;;;;11.34;36.21;101310.21;1756172;80;21566;-59
2021/10/25 11:42:21;;;;;;;9.23;7.10;;;;;;;11.38;36.39;101313.20;1758499;80;21081;-58
2021/10/25 11:44:54;;;;;;;10.05;7.35;;;;;;;11.42;36.27;101312.69;1757188;80;21405;-58
2021/10/25 11:47:26;;;;;;;8.80;6.90;;;;;;;11.49;36.17;101307.27;1751273;80;21634;-58
2021/10/25 11:49:55;;;;;;;11.15;6.80;;;;;;;11.71;35.64;101304.64;1755351;80;21494;-58
2021/10/25 11:52:22;;;;;;;12.03;6.65;;;;;;;11.96;35.41;101299.73;1751282;80;21534;-57
2021/10/25 11:54:53;;;;;;;10.95;6.45;;;;;;;12.29;35.21;101295.46;1758909;80;20959;-57
2021/10/25 11:57:23;;;;;;;11.95;6.17;;;;;;;12.58;34.75;101291.23;1771080;80;21993;-59
2021/10/25 12:00:03;;;;;;;14.90;6.45;;;;;;;12.85;34.40;101285.73;1761275;80;21542;-59
2021/10/25 12:02:35;;;;;;;9.73;7.05;;;;;;;13.16;33.82;101280.47;1753719;80;21608;-61
2021/10/25 12:05:06;;;;;;;12.28;6.95;;;;;;;13.58;33.33;101274.94;1750676;80;21632;-57
2021/10/25 12:07:33;;;;;;;10.43;7.65;;;;;;;13.82;32.75;101271.13;1757531;80;21608;-58
2021/10/25 12:10:06;;;;;;;11.03;6.65;;;;;;;13.76;32.47;101275.29;1752199;80;21773;-58
2021/10/25 12:12:33;;;;;;;12.10;7.30;;;;;;;13.48;31.77;101275.23;1750857;80;21470;-57
2021/10/25 12:15:02;;;;;;;13.77;7.53;;;;;;;13.02;32.77;101274.72;1745874;80;21526;-57
2021/10/25 12:17:33;;;;;;;12.20;7.35;;;;;;;13.02;32.77;101274.72;1748981;80;21561;-58
2021/10/25 12:20:05;;;;;;;11.65;7.08;;;;;;;12.89;32.70;101269.36;1743025;80;21534;-57
2021/10/25 12:22:32;;;;;;;8.50;6.42;;;;;;;12.82;32.70;101270.82;1748085;80;21731;-57
2021/10/25 12:24:59;;;;;;;11.50;7.23;;;;;;;12.75;32.88;101270.59;1734510;80;21491;-57
2021/10/25 12:27:42;;;;;;;14.83;7.63;;;;;;;12.72;32.94;101269.34;1739823;80;21480;-58
2021/10/25 12:30:16;;;;;;;15.05;7.97;;;;;;;12.67;32.85;101268.58;1739242;80;21662;-58
2021/10/25 12:32:59;;;;;;;;;;;;;;;12.65;32.87;101259.38;1746878;80;21048;-57
2021/10/25 12:35:42;;;;;;;11.50;7.30;;;;;;;12.75;32.63;101259.14;1745157;80;21810;-58
2021/10/25 12:38:12;;;;;;;11.70;7.22;;;;;;;12.83;32.82;101254.55;1748436;80;21538;-57
2021/10/25 12:41:01;;;;;;;12.70;7.90;;;;;;;12.96;32.75;101251.99;1747477;80;21523;-58
2021/10/25 12:43:40;;;;;;;12.60;7.72;;;;;;;13.47;32.11;101251.92;1719585;80;21420;-57
2021/10/25 12:46:09;;;;;;;12.85;7.37;;;;;;;14.31;31.04;101244.92;1749093;80;21077;-57
2021/10/25 12:48:47;;;;;;;12.68;8.45;;;;;;;14.96;30.03;101245.80;1744361;80;21825;-58
2021/10/25 12:51:14;;;;;;;14.33;6.67;;;;;;;15.51;29.50;101239.40;1748765;80;21535;-57
2021/10/25 12:53:43;;;;;;;15.03;7.67;;;;;;;15.91;28.83;101241.85;1745306;80;21584;-58
2021/10/25 12:56:09;;;;;;;12.68;7.65;;;;;;;16.15;28.50;101243.52;1740960;80;21543;-58
2021/10/25 12:58:36;;;;;;;13.32;7.67;;;;;;;16.24;28.23;101244.95;1744744;80;21609;-58
2021/10/25 13:01:14;;;;;;;10.70;7.60;;;;;;;16.26;28.09;101240.44;1752743;80;22077;-61
2021/10/25 13:03:47;;;;;;;11.75;7.40;;;;;;;16.05;28.17;101241.29;1741136;80;21518;-61
2021/10/25 13:06:14;;;;;;;14.93;7.42;;;;;;;15.85;28.35;101241.63;1744315;80;21515;-63
2021/10/25 13:08:41;;;;;;;11.12;6.78;;;;;;;15.56;28.75;101240.95;1740229;80;21577;-61
2021/10/25 13:11:13;;;;;;;14.50;6.90;;;;;;;15.36;28.90;101247.46;1744119;80;21614;-61
2021/10/25 13:13:45;;;;;;;16.00;9.48;;;;;;;15.26;28.96;101242.97;1737295;80;21818;-61
2021/10/25 13:16:17;;;;;;;20.05;12.60;;;;;;;15.04;28.78;101240.70;1723634;80;21688;-61
2021/10/25 13:18:45;;;;;;;12.75;9.68;;;;;;;14.86;28.97;101246.17;1694423;82;21538;-62
2021/10/25 13:21:12;;;;;;;12.28;7.42;;;;;;;14.61;29.22;101239.08;1719028;82;21546;-61
2021/10/25 13:23:41;;;;;;;9.00;6.60;;;;;;;14.39;28.98;101238.47;1724763;81;21536;-62